EmailTwitter


Observations de surface / Québec / CYUL (71627)

Régions: Québec | Canada | États-Unis | Europe | France | UK | Ailleurs
Station
Affichage
Infos & localisation pour CYUL (71627) | Aide pour décoder les METARs

Observations prises le 2017-09-26 à 07H00 UTC à MONTREAL INTL A, QB (CYUL)

Etat du ciel: partiellement nuageux.

Température: 22.0 Celsius

Point de rosée: 20.0 Celsius

Humidité relative: 88%

Indice Humidex: 30.

Vents: Sud-sud-ouest à 9 km/h ou 5 noeuds.

Pression au niveau moyen de la mer: 101.53 kilopascals.

Calage altimétrique: 101.52 kilopascals ou 29.98 pouces de mercure.

Visibilité horizontale: 15.00 milles terrestres ou 24.00 kilomètres.

Hauteur du plafond: 7315 mètres ( 24000 pieds ).

Observation METAR:

CYUL 260700Z 20005KT 15SM BKN240 22/20 A2998 RMK CI5 SLP153 DENSITY ALT 900FT=